createdAt,value
2019-03-08T00:04:59.458Z,99381.79
2019-03-08T00:10:01.884Z,99394.13
2019-03-08T00:15:04.275Z,99399.48
2019-03-08T00:20:07.118Z,99409.93
2019-03-08T00:25:09.228Z,99408.23
2019-03-08T00:30:11.910Z,99409.50
2019-03-08T00:35:14.040Z,99429.92
2019-03-08T00:40:16.045Z,99427.20
2019-03-08T00:45:18.438Z,99437.81
2019-03-08T00:50:20.504Z,99449.20
2019-03-08T00:55:22.580Z,99444.80
2019-03-08T01:00:24.709Z,99441.19
2019-03-08T01:05:27.051Z,99448.72
2019-03-08T01:10:29.509Z,99444.48
2019-03-08T01:15:31.585Z,99446.19
2019-03-08T01:20:33.781Z,99448.72
2019-03-08T01:25:36.013Z,99445.86
2019-03-08T01:30:38.198Z,99451.89
2019-03-08T01:35:40.440Z,99454.16
2019-03-08T01:40:42.524Z,99461.16
2019-03-08T01:45:44.571Z,99461.00
2019-03-08T01:50:46.630Z,99467.20
2019-03-08T01:55:48.828Z,99464.77
2019-03-08T02:00:50.869Z,99476.52
2019-03-08T02:05:52.966Z,99476.05
2019-03-08T02:10:55.005Z,99476.55
2019-03-08T02:15:57.039Z,99476.80
2019-03-08T02:21:06.404Z,99480.41
2019-03-08T02:26:03.068Z,99476.76
2019-03-08T02:31:05.278Z,99471.47
2019-03-08T02:36:07.808Z,99468.45
2019-03-08T02:41:09.848Z,99473.00
2019-03-08T02:46:11.922Z,99464.95
2019-03-08T02:51:14.357Z,99466.48
2019-03-08T02:56:16.412Z,99476.89
2019-03-08T03:01:18.538Z,99489.30
2019-03-08T03:06:20.571Z,99491.29
2019-03-08T03:11:22.673Z,99487.85
2019-03-08T03:16:24.771Z,99475.83
2019-03-08T03:21:27.227Z,99487.85
2019-03-08T03:26:29.314Z,99496.00
2019-03-08T03:31:31.368Z,99491.59
2019-03-08T03:36:33.410Z,99499.05
2019-03-08T03:41:35.772Z,99511.48
2019-03-08T03:46:37.786Z,99497.16
2019-03-08T03:51:40.408Z,99499.56
2019-03-08T03:56:42.865Z,99499.94
2019-03-08T04:01:47.867Z,99498.49
2019-03-08T04:06:50.135Z,99517.98
2019-03-08T04:11:52.341Z,99508.73
2019-03-08T04:16:54.702Z,99519.33
2019-03-08T04:21:56.852Z,99534.42
2019-03-08T04:26:58.886Z,99544.41
2019-03-08T04:32:00.942Z,99561.09
2019-03-08T04:37:02.958Z,99568.84
2019-03-08T04:42:05.223Z,99574.23
2019-03-08T04:47:07.552Z,99584.59
2019-03-08T04:52:09.748Z,99605.39
2019-03-08T04:57:11.802Z,99600.33
2019-03-08T05:02:14.228Z,99599.63
2019-03-08T05:07:16.577Z,99611.68
2019-03-08T05:12:18.934Z,99617.11
2019-03-08T05:17:21.023Z,99625.67
2019-03-08T05:22:23.246Z,99623.92
2019-03-08T05:27:25.394Z,99641.41
2019-03-08T05:32:27.471Z,99648.27
2019-03-08T05:37:29.565Z,99655.19
2019-03-08T05:42:31.744Z,99651.69
2019-03-08T05:47:33.858Z,99660.95
2019-03-08T05:52:36.333Z,99670.88
2019-03-08T05:57:38.571Z,99670.09
2019-03-08T06:02:41.715Z,99670.27
2019-03-08T06:07:44.402Z,99673.92
2019-03-08T06:12:46.470Z,99689.72
2019-03-08T06:17:48.548Z,99698.46
2019-03-08T06:22:50.926Z,99713.88
2019-03-08T06:27:53.976Z,99731.01
2019-03-08T06:32:59.793Z,99735.59
2019-03-08T06:38:03.962Z,99748.84
2019-03-08T06:43:06.039Z,99761.85
2019-03-08T06:48:08.160Z,99776.42
2019-03-08T06:53:10.243Z,99788.95
2019-03-08T06:58:15.509Z,99805.33
2019-03-08T07:03:17.623Z,99809.68
2019-03-08T07:08:20.333Z,99812.09
2019-03-08T07:13:22.739Z,99816.70
2019-03-08T07:18:25.047Z,99838.94
2019-03-08T07:23:55.826Z,99849.21
2019-03-08T07:29:29.823Z,99861.44
2019-03-08T07:34:38.831Z,99872.13
2019-03-08T07:39:49.705Z,99889.67
2019-03-08T07:45:01.630Z,99899.41
2019-03-08T07:50:27.296Z,99918.66
2019-03-08T07:55:46.481Z,99924.34
2019-03-08T08:01:05.839Z,99935.66
2019-03-08T08:06:14.259Z,99947.44
2019-03-08T08:11:38.845Z,99956.42
2019-03-08T08:17:06.352Z,99955.86
2019-03-08T08:22:28.032Z,99973.33
2019-03-08T08:27:46.665Z,99992.59
2019-03-08T08:33:08.268Z,99990.31
2019-03-08T08:38:25.802Z,99998.02
2019-03-08T08:43:44.134Z,100009.45
2019-03-08T08:49:14.862Z,100015.58
2019-03-08T08:54:33.941Z,100019.48
2019-03-08T09:00:01.502Z,100033.76
2019-03-08T09:05:22.905Z,100037.56
2019-03-08T09:10:43.370Z,100048.64
2019-03-08T09:16:07.876Z,100048.00
2019-03-08T09:21:28.311Z,100059.94
2019-03-08T09:26:55.772Z,100070.31
2019-03-08T09:32:17.495Z,100078.23
2019-03-08T09:37:54.208Z,100092.30
2019-03-08T09:43:14.731Z,100091.66
2019-03-08T09:48:51.458Z,100104.10
2019-03-08T09:54:01.032Z,100125.64
2019-03-08T09:59:21.099Z,100141.38
2019-03-08T10:04:35.765Z,100152.58
2019-03-08T10:09:44.522Z,100150.31
2019-03-08T10:15:12.835Z,100163.95
2019-03-08T10:20:44.012Z,100176.04
2019-03-08T10:25:55.786Z,100186.27
2019-03-08T10:31:17.697Z,100189.76
2019-03-08T10:36:54.451Z,100195.83
2019-03-08T10:42:10.180Z,100200.70
2019-03-08T10:47:31.124Z,100209.02
2019-03-08T10:52:40.457Z,100195.38
2019-03-08T10:58:14.149Z,100193.78
2019-03-08T11:03:45.033Z,100227.47
2019-03-08T11:08:52.219Z,100232.23
2019-03-08T11:14:13.738Z,100237.00
2019-03-08T11:19:40.596Z,100237.78
2019-03-08T11:25:14.454Z,100249.84
2019-03-08T11:30:36.973Z,100266.40
2019-03-08T11:35:54.209Z,100283.03
2019-03-08T11:41:25.211Z,100273.91
2019-03-08T11:46:53.686Z,100273.95
2019-03-08T11:52:17.964Z,100290.38
2019-03-08T11:57:34.965Z,100293.59
2019-03-08T12:02:56.760Z,100294.88
2019-03-08T12:08:18.217Z,100295.22
2019-03-08T12:13:48.863Z,100297.49
2019-03-08T12:19:16.139Z,100296.28
2019-03-08T12:24:29.319Z,100307.77
2019-03-08T12:29:49.150Z,100305.86
2019-03-08T12:35:09.616Z,100308.91
2019-03-08T12:40:19.844Z,100329.14
2019-03-08T12:45:41.533Z,100326.19
2019-03-08T12:51:03.368Z,100310.47
2019-03-08T12:56:24.006Z,100322.77
2019-03-08T13:01:50.518Z,100314.45
2019-03-08T13:07:07.050Z,100316.98
2019-03-08T13:12:09.249Z,100327.29
2019-03-08T13:17:11.651Z,100333.82
2019-03-08T13:22:13.875Z,100333.84
2019-03-08T13:27:16.435Z,100344.01
2019-03-08T13:32:18.569Z,100336.59
2019-03-08T13:37:21.032Z,100336.59
2019-03-08T13:42:23.457Z,100335.45
2019-03-08T13:47:25.613Z,100335.88
2019-03-08T13:52:27.943Z,100342.58
2019-03-08T13:57:30.415Z,100339.03
2019-03-08T14:02:32.662Z,100359.01
2019-03-08T14:07:35.236Z,100358.48
2019-03-08T14:12:37.743Z,100355.61
2019-03-08T14:17:40.460Z,100362.08
2019-03-08T14:22:43.257Z,100356.22
2019-03-08T14:27:45.399Z,100358.45
2019-03-08T14:32:47.570Z,100358.45
2019-03-08T14:37:52.428Z,100352.11
2019-03-08T14:43:06.695Z,100352.11
2019-03-08T14:48:09.556Z,100352.00
2019-03-08T14:53:13.133Z,100358.16
2019-03-08T14:58:15.513Z,100366.52
2019-03-08T15:03:20.279Z,100358.20
2019-03-08T15:08:22.078Z,100355.47
2019-03-08T15:13:25.742Z,100355.47
2019-03-08T15:18:29.625Z,100358.87
2019-03-08T15:23:32.152Z,100369.48
2019-03-08T15:28:34.321Z,100369.02
2019-03-08T15:33:36.576Z,100369.34
2019-03-08T15:38:38.673Z,100361.30
2019-03-08T15:43:40.846Z,100367.95
2019-03-08T15:48:45.164Z,100365.90
2019-03-08T15:53:47.119Z,100369.09
2019-03-08T15:58:49.364Z,100369.09
2019-03-08T16:03:51.541Z,100377.93
2019-03-08T16:08:53.768Z,100381.83
2019-03-08T16:13:55.888Z,100387.58
2019-03-08T16:18:57.950Z,100396.41
2019-03-08T16:24:00.341Z,100393.42
2019-03-08T16:29:04.375Z,100381.87
2019-03-08T16:34:07.685Z,100381.54
2019-03-08T16:39:28.198Z,100404.57
2019-03-08T16:44:42.754Z,100407.68
2019-03-08T16:50:13.449Z,100403.68
2019-03-08T16:55:46.526Z,100416.98
2019-03-08T17:01:11.318Z,100426.21
2019-03-08T17:06:29.946Z,100428.30
2019-03-08T17:11:48.923Z,100432.72
2019-03-08T17:17:16.667Z,100438.95
2019-03-08T17:22:30.978Z,100447.25
2019-03-08T17:27:49.504Z,100457.77
2019-03-08T17:33:13.627Z,100459.94
2019-03-08T17:38:44.310Z,100458.09
2019-03-08T17:44:13.941Z,100459.11
2019-03-08T17:49:41.782Z,100466.00
2019-03-08T17:54:56.322Z,100464.83
2019-03-08T18:00:16.914Z,100474.92
2019-03-08T18:05:41.370Z,100472.28
2019-03-08T18:11:12.044Z,100472.55
2019-03-08T18:16:36.896Z,100473.69
2019-03-08T18:21:59.617Z,100475.95
2019-03-08T18:27:21.363Z,100475.20
2019-03-08T18:33:08.399Z,100467.05
2019-03-08T18:38:31.739Z,100461.40
2019-03-08T18:43:44.918Z,100464.30
2019-03-08T18:48:54.547Z,100474.41
2019-03-08T18:54:19.188Z,100472.20
2019-03-08T18:59:41.033Z,100477.06
2019-03-08T19:04:54.382Z,100484.21
2019-03-08T19:10:22.680Z,100486.87
2019-03-08T19:15:47.136Z,100491.31
2019-03-08T19:21:23.713Z,100502.98
2019-03-08T19:26:41.814Z,100507.31
2019-03-08T19:31:50.975Z,100506.10
2019-03-08T19:37:21.171Z,100501.38
2019-03-08T19:42:43.611Z,100515.78
2019-03-08T19:48:04.130Z,100499.59
2019-03-08T19:53:19.579Z,100511.80
2019-03-08T19:58:39.303Z,100520.03
2019-03-08T20:03:49.562Z,100515.11
2019-03-08T20:09:01.372Z,100517.10
2019-03-08T20:14:20.028Z,100508.09
2019-03-08T20:19:44.382Z,100509.60
2019-03-08T20:25:04.711Z,100513.31
2019-03-08T20:30:19.793Z,100512.06
2019-03-08T20:35:41.705Z,100505.98
2019-03-08T20:40:50.504Z,100498.26
2019-03-08T20:46:10.440Z,100496.27
2019-03-08T20:51:12.555Z,100483.94
2019-03-08T20:56:14.728Z,100488.53
2019-03-08T21:01:16.954Z,100487.40
2019-03-08T21:06:19.059Z,100477.19
2019-03-08T21:11:28.881Z,100476.83
2019-03-08T21:16:30.988Z,100479.45
2019-03-08T21:21:33.234Z,100475.27
2019-03-08T21:26:35.412Z,100462.78
2019-03-08T21:31:37.519Z,100466.96
2019-03-08T21:36:39.656Z,100462.97
2019-03-08T21:41:41.922Z,100468.48
2019-03-08T21:46:44.023Z,100456.62
2019-03-08T21:51:46.653Z,100461.44
2019-03-08T21:56:49.560Z,100454.34
2019-03-08T22:01:51.863Z,100448.17
2019-03-08T22:06:53.909Z,100448.36
2019-03-08T22:11:55.991Z,100433.52
2019-03-08T22:16:58.107Z,100423.06
2019-03-08T22:22:00.164Z,100421.09
2019-03-08T22:27:02.335Z,100425.06
2019-03-08T22:32:04.492Z,100418.44
2019-03-08T22:37:07.322Z,100405.97
2019-03-08T22:42:09.509Z,100398.29
2019-03-08T22:47:11.568Z,100386.40
2019-03-08T22:52:13.703Z,100395.29
2019-03-08T22:57:15.846Z,100384.09
2019-03-08T23:02:18.714Z,100373.42
2019-03-08T23:07:20.880Z,100368.50
2019-03-08T23:12:22.944Z,100348.70
2019-03-08T23:17:25.177Z,100347.92
2019-03-08T23:22:27.603Z,100341.02
2019-03-08T23:27:34.632Z,100327.97
2019-03-08T23:32:40.928Z,100326.95
2019-03-08T23:37:43.021Z,100318.22
2019-03-08T23:42:45.681Z,100307.35
2019-03-08T23:47:47.788Z,100310.94
2019-03-08T23:52:50.019Z,100313.70
2019-03-08T23:57:52.132Z,100313.27
